Time;durP1;ratioP1;P1;durP2;ratioP2;P2;SDS_P1;SDS_P2;PMS_P1;PMS_P2;Temp;Humidity;BMP_temperature;BMP_pressure;BME280_temperature;BME280_humidity;BME280_pressure;Samples;Min_cycle;Max_cycle;Signal;HPM_P1;HPM_P2
2022/03/08 00:00:12;;;;;;;27.02;17.55;;;;;;;-0.50;81.32;94968.25;5050464;28;20490;-58
2022/03/08 00:02:38;;;;;;;28.10;17.92;;;;;;;-0.33;81.27;94980.56;5050087;28;20064;-59
2022/03/08 00:05:05;;;;;;;25.73;15.95;;;;;;;-0.26;81.43;94990.53;5050193;28;20057;-59
2022/03/08 00:07:30;;;;;;;24.80;16.90;;;;;;;-0.22;80.52;94981.97;5050707;28;20025;-60
2022/03/08 00:09:56;;;;;;;25.33;17.55;;;;;;;-0.20;80.87;94992.94;5050147;28;20423;-58
2022/03/08 00:12:21;;;;;;;25.23;17.60;;;;;;;-0.55;80.88;94935.41;5050484;28;20056;-61
2022/03/08 00:14:47;;;;;;;25.45;17.08;;;;;;;-0.68;80.68;94914.56;5049938;28;20049;-59
2022/03/08 00:17:13;;;;;;;21.15;15.13;;;;;;;-0.25;80.07;94976.97;5050152;28;20033;-58
2022/03/08 00:19:38;;;;;;;23.42;15.48;;;;;;;-0.15;80.53;94985.22;5050081;28;20025;-59
2022/03/08 00:22:04;;;;;;;28.17;19.02;;;;;;;-0.72;80.24;94882.59;5049758;28;20035;-61
2022/03/08 00:24:29;;;;;;;24.90;16.50;;;;;;;-0.21;79.90;94963.38;5049659;28;20032;-61
2022/03/08 00:26:54;;;;;;;21.88;15.93;;;;;;;-0.04;79.78;94985.00;5049399;28;20078;-60
2022/03/08 00:29:20;;;;;;;23.90;15.95;;;;;;;0.02;79.03;94989.06;5049831;28;20032;-62
2022/03/08 00:31:45;;;;;;;26.58;16.25;;;;;;;0.07;79.64;95000.81;5049888;28;20494;-58
2022/03/08 00:34:11;;;;;;;24.77;15.98;;;;;;;0.07;79.07;94995.72;5049606;28;20025;-58
2022/03/08 00:36:36;;;;;;;23.75;15.15;;;;;;;0.05;79.04;94984.78;5049278;28;20033;-58
2022/03/08 00:39:03;;;;;;;24.58;16.42;;;;;;;0.14;78.80;94983.75;5049377;28;20591;-59
2022/03/08 00:41:28;;;;;;;22.27;15.45;;;;;;;0.15;78.73;94991.31;5049703;28;20053;-61
2022/03/08 00:43:54;;;;;;;21.98;15.75;;;;;;;0.15;77.88;94986.25;5049514;28;20056;-63
2022/03/08 00:46:19;;;;;;;22.27;16.30;;;;;;;0.12;78.33;94971.09;5049536;28;20025;-60
2022/03/08 00:48:45;;;;;;;20.30;13.68;;;;;;;0.17;78.03;94987.03;5049064;28;20032;-62
2022/03/08 00:51:11;;;;;;;23.25;15.68;;;;;;;0.07;77.72;94975.44;5049034;28;20086;-64
2022/03/08 00:53:38;;;;;;;21.67;14.13;;;;;;;0.06;78.20;94967.88;5049589;28;20488;-61
2022/03/08 00:56:03;;;;;;;21.27;14.30;;;;;;;-0.06;77.28;94957.13;5049088;28;20029;-56
2022/03/08 00:58:29;;;;;;;24.88;15.38;;;;;;;0.23;77.10;94987.75;5048705;28;20053;-62
2022/03/08 01:00:55;;;;;;;24.85;16.23;;;;;;;0.20;77.06;94972.63;5048632;28;20025;-61
2022/03/08 01:03:20;;;;;;;21.88;14.88;;;;;;;0.14;77.05;94966.81;5049214;28;20480;-60
2022/03/08 01:05:46;;;;;;;22.30;14.57;;;;;;;0.16;77.81;94971.84;5048930;28;20021;-63
2022/03/08 01:08:11;;;;;;;23.17;16.10;;;;;;;0.15;77.51;94965.13;5048833;28;20029;-59
2022/03/08 01:10:37;;;;;;;22.38;14.95;;;;;;;0.17;77.14;94971.81;5049060;28;20032;-58
2022/03/08 01:13:03;;;;;;;22.75;14.40;;;;;;;0.14;76.34;94938.94;5048191;28;20035;-62
2022/03/08 01:15:28;;;;;;;24.27;16.20;;;;;;;-0.13;76.68;94910.00;5048965;28;20100;-59
2022/03/08 01:17:56;;;;;;;19.95;13.57;;;;;;;-0.04;75.75;94908.94;5048697;28;20680;-59
2022/03/08 01:20:22;;;;;;;24.13;15.07;;;;;;;0.39;75.49;94976.38;5048812;28;20714;-61
2022/03/08 01:22:49;;;;;;;20.48;14.27;;;;;;;0.30;75.98;94969.00;5048686;28;20471;-58
2022/03/08 01:25:16;;;;;;;23.40;15.00;;;;;;;-0.17;76.08;94898.25;5047965;28;20033;-67
2022/03/08 01:27:42;;;;;;;21.80;15.00;;;;;;;0.11;75.73;94918.72;5049045;28;20461;-60
2022/03/08 01:30:11;;;;;;;22.60;15.73;;;;;;;0.38;74.86;94969.66;5048503;28;20090;-59
2022/03/08 01:32:37;;;;;;;24.52;16.83;;;;;;;0.23;74.48;94931.97;5048766;28;20060;-59
2022/03/08 01:35:04;;;;;;;21.17;14.40;;;;;;;-0.35;74.07;94812.53;5048229;28;20028;-62
2022/03/08 01:37:29;;;;;;;23.08;15.98;;;;;;;0.53;74.51;94960.84;5048045;28;20086;-64
2022/03/08 01:39:54;;;;;;;23.80;16.13;;;;;;;0.57;74.73;94972.56;5048630;28;20465;-59
2022/03/08 01:42:22;;;;;;;22.30;15.15;;;;;;;0.53;74.56;94971.00;5048418;28;20099;-59
2022/03/08 01:44:48;;;;;;;25.67;16.17;;;;;;;0.41;74.00;94954.38;5048490;28;20620;-60
2022/03/08 01:47:18;;;;;;;22.15;15.73;;;;;;;0.28;74.03;94941.16;5048385;28;20111;-60
2022/03/08 01:49:44;;;;;;;24.55;16.05;;;;;;;0.44;73.57;94961.06;5047822;28;20028;-60
2022/03/08 01:52:11;;;;;;;24.08;17.17;;;;;;;0.38;74.03;94962.06;5047495;28;20083;-57
2022/03/08 01:54:37;;;;;;;24.13;15.65;;;;;;;0.45;74.85;94972.88;5048214;28;20025;-59
2022/03/08 01:57:04;;;;;;;26.15;15.50;;;;;;;0.46;74.48;94970.31;5048115;28;20131;-60
2022/03/08 01:59:29;;;;;;;23.75;15.90;;;;;;;0.54;73.98;94965.03;5047963;28;20025;-60
2022/03/08 02:01:55;;;;;;;24.20;15.15;;;;;;;0.44;73.24;94963.59;5047699;28;20420;-62
2022/03/08 02:04:20;;;;;;;24.20;16.42;;;;;;;0.05;73.84;94918.88;5048052;28;20087;-59
2022/03/08 02:06:46;;;;;;;24.90;16.92;;;;;;;0.30;74.52;94954.63;5048009;28;20029;-59
2022/03/08 02:09:12;;;;;;;22.48;14.65;;;;;;;0.23;74.04;94957.31;5047757;28;20025;-59
2022/03/08 02:11:39;;;;;;;25.33;15.52;;;;;;;0.31;74.48;94961.38;5046805;28;20045;-63
2022/03/08 02:14:05;;;;;;;21.70;14.88;;;;;;;-0.36;74.15;94854.78;5047430;28;20045;-58
2022/03/08 02:16:31;;;;;;;25.27;15.82;;;;;;;0.29;74.69;94957.19;5047727;28;20498;-59
2022/03/08 02:18:56;;;;;;;24.15;16.73;;;;;;;0.29;74.34;94949.56;5047723;28;20035;-59
2022/03/08 02:21:21;;;;;;;24.77;17.05;;;;;;;0.33;74.25;94963.88;5047894;28;20067;-58
2022/03/08 02:23:47;;;;;;;26.15;16.83;;;;;;;0.32;74.57;94963.00;5046518;28;20029;-58
2022/03/08 02:26:12;;;;;;;25.52;15.88;;;;;;;0.33;74.06;94958.78;5047177;28;20137;-60
2022/03/08 02:28:39;;;;;;;23.88;15.88;;;;;;;0.31;74.35;94965.59;5048220;28;20028;-59
2022/03/08 02:31:05;;;;;;;28.88;18.27;;;;;;;0.28;74.27;94969.06;5047898;28;20577;-60
2022/03/08 02:33:30;;;;;;;25.73;17.40;;;;;;;0.24;74.32;94971.69;5049325;28;20060;-60
2022/03/08 02:35:56;;;;;;;29.85;19.50;;;;;;;-0.06;75.10;94916.59;5047905;28;20056;-59
2022/03/08 02:38:21;;;;;;;25.30;17.45;;;;;;;0.27;74.54;94969.91;5047591;28;20021;-61
2022/03/08 02:40:47;;;;;;;27.27;18.55;;;;;;;0.25;74.41;94973.38;5047886;28;20033;-58
2022/03/08 02:43:13;;;;;;;24.73;16.98;;;;;;;0.06;74.94;94945.88;5047449;28;20099;-57
2022/03/08 02:45:39;;;;;;;28.55;18.95;;;;;;;0.12;75.18;94962.66;5047481;28;20115;-60
2022/03/08 02:48:04;;;;;;;30.95;20.05;;;;;;;0.23;75.02;94982.69;5047613;28;20025;-61
2022/03/08 02:50:30;;;;;;;27.42;17.67;;;;;;;-0.01;74.11;94941.84;5047049;28;20116;-59
2022/03/08 02:52:58;;;;;;;28.35;17.60;;;;;;;0.23;74.53;94983.53;5047531;28;20033;-59
2022/03/08 02:55:27;;;;;;;27.00;19.33;;;;;;;-0.10;74.46;94935.28;5047339;28;20404;-57
2022/03/08 02:57:54;;;;;;;29.35;18.67;;;;;;;0.20;75.81;94988.69;5047650;28;20036;-58
2022/03/08 03:00:22;;;;;;;27.75;20.15;;;;;;;0.23;75.60;94995.38;5047172;28;20041;-59
2022/03/08 03:02:49;;;;;;;29.20;17.35;;;;;;;0.27;74.30;94997.81;5046905;28;20028;-59
2022/03/08 03:05:15;;;;;;;25.15;16.40;;;;;;;0.18;73.18;94986.19;5050258;28;20025;-61
2022/03/08 03:07:41;;;;;;;27.92;18.90;;;;;;;0.04;74.13;94967.09;5050125;28;20052;-60
2022/03/08 03:10:09;;;;;;;28.02;18.38;;;;;;;-0.09;74.10;94962.28;5051233;28;20116;-59
2022/03/08 03:12:35;;;;;;;27.27;16.25;;;;;;;-0.21;74.07;94950.72;5051428;28;20060;-62
2022/03/08 03:15:03;;;;;;;29.35;18.08;;;;;;;0.02;74.01;94997.53;5050592;28;20368;-63
2022/03/08 03:17:28;;;;;;;29.02;18.85;;;;;;;-0.08;73.67;94981.69;5051038;28;20032;-60
2022/03/08 03:19:54;;;;;;;28.23;18.15;;;;;;;-0.52;74.17;94932.00;5051067;28;20029;-58
2022/03/08 03:22:19;;;;;;;30.83;19.23;;;;;;;-0.50;74.94;94936.13;5050923;28;20530;-62
2022/03/08 03:24:45;;;;;;;26.75;18.17;;;;;;;-0.12;75.12;95002.06;5050825;28;20136;-56
2022/03/08 03:27:11;;;;;;;23.55;15.98;;;;;;;-0.27;75.38;94977.91;5050487;28;20032;-59
2022/03/08 03:29:36;;;;;;;29.60;18.50;;;;;;;-0.10;75.37;95005.41;5051204;28;20039;-57
2022/03/08 03:32:02;;;;;;;29.77;18.13;;;;;;;-0.36;75.87;94971.34;5051001;28;20528;-58
2022/03/08 03:34:27;;;;;;;29.15;18.48;;;;;;;-0.21;75.65;94996.34;5050922;28;20033;-57
2022/03/08 03:36:53;;;;;;;26.83;17.88;;;;;;;-0.17;76.60;95007.22;5049261;28;20067;-60
2022/03/08 03:39:18;;;;;;;30.95;19.23;;;;;;;-0.12;75.60;95007.97;5050158;28;20052;-61
2022/03/08 03:41:44;;;;;;;27.52;18.42;;;;;;;-0.23;75.76;94975.25;5050382;28;20041;-60
2022/03/08 03:44:10;;;;;;;27.17;17.00;;;;;;;-0.30;75.76;94963.56;5050520;28;20044;-58
2022/03/08 03:46:36;;;;;;;28.27;17.70;;;;;;;-0.06;76.13;95009.56;5050825;28;20041;-62
2022/03/08 03:49:02;;;;;;;27.02;17.92;;;;;;;-0.13;76.31;95010.53;5050175;28;20028;-58
2022/03/08 03:51:28;;;;;;;27.38;18.83;;;;;;;-0.37;77.21;94975.53;5050197;28;20039;-61
2022/03/08 03:53:54;;;;;;;29.58;19.00;;;;;;;-0.21;77.50;94996.34;5050279;28;20079;-58
2022/03/08 03:56:19;;;;;;;29.33;18.08;;;;;;;-0.61;77.67;94938.91;5050427;28;20033;-57
2022/03/08 03:58:44;;;;;;;28.65;18.35;;;;;;;-0.14;77.59;95009.72;5050426;28;20024;-58
2022/03/08 04:01:10;;;;;;;31.20;19.55;;;;;;;-0.17;77.60;95008.94;5049801;28;20742;-59
2022/03/08 04:03:35;;;;;;;29.45;18.02;;;;;;;-0.34;77.93;94976.34;5050093;28;20021;-58
2022/03/08 04:06:01;;;;;;;30.50;17.75;;;;;;;-0.40;77.59;94970.53;5050226;28;20063;-59
2022/03/08 04:08:26;;;;;;;30.98;18.65;;;;;;;-0.54;78.26;94938.75;5050160;28;20029;-59
2022/03/08 04:10:52;;;;;;;33.35;19.50;;;;;;;-0.32;78.57;94992.38;5049807;28;20040;-58
2022/03/08 04:13:18;;;;;;;32.53;19.80;;;;;;;-0.50;78.53;94966.53;5049584;28;20071;-58
2022/03/08 04:15:45;;;;;;;31.08;20.17;;;;;;;-0.51;78.72;94971.63;5049553;28;20063;-59
2022/03/08 04:18:12;;;;;;;32.40;20.92;;;;;;;-0.42;79.16;94979.88;5049890;28;20107;-58
2022/03/08 04:20:39;;;;;;;24.67;15.10;;;;;;;-1.24;78.54;94843.97;5049972;28;20083;-60
2022/03/08 04:23:04;;;;;;;29.67;17.15;;;;;;;-0.25;78.70;95007.38;5049954;28;20044;-58
2022/03/08 04:25:30;;;;;;;27.55;19.23;;;;;;;-0.32;79.34;95005.03;5049056;28;20060;-57
2022/03/08 04:27:55;;;;;;;31.35;20.73;;;;;;;-0.43;79.96;94995.94;5050040;28;20040;-63
2022/03/08 04:30:21;;;;;;;33.50;22.02;;;;;;;-0.38;79.40;95004.31;5049596;28;20021;-58
2022/03/08 04:32:46;;;;;;;29.88;20.20;;;;;;;-0.61;80.10;94965.91;5049763;28;20025;-58
2022/03/08 04:35:13;;;;;;;36.10;22.05;;;;;;;-0.38;79.65;94984.03;5049787;28;20057;-60
2022/03/08 04:37:39;;;;;;;36.13;21.20;;;;;;;-0.97;79.16;94888.16;5044926;28;20028;-59
2022/03/08 04:40:06;;;;;;;37.35;22.90;;;;;;;-0.25;79.28;95007.38;5031388;28;20052;-63
2022/03/08 04:42:32;;;;;;;35.25;22.08;;;;;;;-0.27;79.54;95008.31;5029426;28;20119;-58
2022/03/08 04:44:57;;;;;;;35.30;21.88;;;;;;;-0.32;79.05;94994.91;5029544;28;20038;-59
2022/03/08 04:47:23;;;;;;;38.17;24.60;;;;;;;-0.20;79.41;95002.22;5029655;28;20119;-58
2022/03/08 04:49:48;;;;;;;36.97;23.75;;;;;;;-0.23;78.88;95005.69;5029002;28;20400;-56
2022/03/08 04:52:14;;;;;;;34.53;21.50;;;;;;;-0.40;79.21;94973.06;5029558;28;20038;-59
2022/03/08 04:54:39;;;;;;;37.22;22.95;;;;;;;-0.17;79.44;95006.41;5028079;28;20040;-56
2022/03/08 04:57:05;;;;;;;36.97;23.27;;;;;;;-0.20;79.92;95002.22;5029336;28;20434;-58
2022/03/08 04:59:31;;;;;;;38.42;24.90;;;;;;;-0.12;78.96;95007.97;5029334;28;20396;-58
2022/03/08 05:01:56;;;;;;;34.80;22.65;;;;;;;-0.08;78.93;95008.72;5028860;28;20026;-64
2022/03/08 05:04:22;;;;;;;37.15;23.02;;;;;;;-0.17;78.69;94986.13;5029265;28;20061;-57
2022/03/08 05:06:47;;;;;;;34.85;20.95;;;;;;;-0.15;78.33;94997.88;5029156;28;20028;-60
2022/03/08 05:09:13;;;;;;;36.63;21.60;;;;;;;-0.07;78.14;95010.41;5029118;28;20025;-58
2022/03/08 05:11:39;;;;;;;34.45;21.73;;;;;;;-0.43;78.24;94946.97;5028707;28;20080;-59
2022/03/08 05:14:05;;;;;;;35.50;22.33;;;;;;;-0.07;78.70;95002.81;5027088;28;20045;-59
2022/03/08 05:16:30;;;;;;;36.38;22.30;;;;;;;-0.10;78.92;95002.88;5040423;28;20029;-59
2022/03/08 05:18:57;;;;;;;30.83;19.48;;;;;;;-0.05;78.27;95013.72;5048958;28;20425;-58
2022/03/08 05:21:22;;;;;;;31.27;20.75;;;;;;;-0.03;78.23;95006.94;5048709;28;20032;-62
2022/03/08 05:23:49;;;;;;;32.45;21.13;;;;;;;0.02;78.36;95007.69;5048655;28;20045;-63
2022/03/08 05:26:15;;;;;;;34.90;20.00;;;;;;;0.09;77.47;95006.66;5040549;28;20531;-63
2022/03/08 05:28:42;;;;;;;34.10;20.65;;;;;;;-0.11;77.39;94981.75;5038735;28;20461;-59
2022/03/08 05:31:09;;;;;;;33.25;20.67;;;;;;;0.08;77.30;95009.22;5038772;28;20117;-63
2022/03/08 05:33:34;;;;;;;32.80;20.23;;;;;;;0.06;77.37;94994.06;5048911;28;20032;-66
2022/03/08 05:36:00;;;;;;;33.75;20.45;;;;;;;-0.10;77.01;94970.75;5048420;28;20102;-61
2022/03/08 05:38:25;;;;;;;34.38;21.80;;;;;;;0.17;76.83;95014.13;5039064;28;20037;-61
2022/03/08 05:40:51;;;;;;;29.95;18.35;;;;;;;0.17;76.67;95009.88;5040293;28;20057;-59
2022/03/08 05:43:16;;;;;;;30.88;20.25;;;;;;;0.17;75.72;94984.50;5039602;28;20037;-59
2022/03/08 05:45:42;;;;;;;33.25;21.10;;;;;;;0.35;75.40;95015.41;5025569;28;20033;-62
2022/03/08 05:48:07;;;;;;;35.40;20.38;;;;;;;0.43;75.98;95010.97;5025803;28;20494;-60
2022/03/08 05:50:32;;;;;;;30.98;18.92;;;;;;;0.44;74.96;95009.25;5024844;28;21023;-63
2022/03/08 05:52:58;;;;;;;33.33;21.42;;;;;;;0.54;75.01;95008.16;5033760;28;20033;-59
2022/03/08 05:55:23;;;;;;;31.63;19.98;;;;;;;0.67;74.57;95012.09;5038959;28;20044;-61
2022/03/08 05:57:49;;;;;;;29.95;18.45;;;;;;;0.76;73.58;95007.66;5043415;28;20075;-62
2022/03/08 06:00:14;;;;;;;31.83;18.92;;;;;;;0.89;73.15;95020.00;5027803;28;20389;-68
2022/03/08 06:02:41;;;;;;;35.15;21.67;;;;;;;0.99;73.44;95012.16;5024696;28;20128;-67
2022/03/08 06:05:07;;;;;;;31.83;19.35;;;;;;;1.01;72.21;95010.41;5046736;28;20094;-61
2022/03/08 06:07:32;;;;;;;30.15;18.92;;;;;;;0.99;71.79;95007.91;5047841;28;20029;-59
2022/03/08 06:09:59;;;;;;;32.35;20.58;;;;;;;1.14;71.73;95019.38;5030063;28;20120;-64
2022/03/08 06:12:25;;;;;;;30.65;20.13;;;;;;;1.23;72.29;95024.22;5028028;28;20484;-61
2022/03/08 06:14:50;;;;;;;27.58;18.00;;;;;;;1.26;70.49;95011.44;5027254;28;20079;-68
2022/03/08 06:17:16;;;;;;;29.90;19.48;;;;;;;1.47;70.67;95020.16;5027918;28;20040;-60
2022/03/08 06:19:41;;;;;;;30.08;19.92;;;;;;;1.46;70.29;95025.31;5027657;28;20303;-60
2022/03/08 06:22:07;;;;;;;32.05;19.60;;;;;;;1.40;70.68;95026.28;5027773;28;20064;-61
2022/03/08 06:24:32;;;;;;;31.98;20.77;;;;;;;1.32;70.89;95022.31;5027825;28;20032;-63
2022/03/08 06:26:58;;;;;;;29.80;20.60;;;;;;;1.40;71.11;95015.31;5033485;28;20120;-58
2022/03/08 06:29:24;;;;;;;31.42;19.08;;;;;;;1.21;70.13;94980.22;5025820;28;20099;-59
2022/03/08 06:31:49;;;;;;;32.63;22.27;;;;;;;0.91;70.03;94928.56;5035241;28;20037;-60
2022/03/08 06:34:14;;;;;;;33.42;20.52;;;;;;;1.37;70.29;95012.84;5025313;28;20030;-63
2022/03/08 06:36:41;;;;;;;30.02;19.90;;;;;;;1.69;69.92;95029.75;5036172;28;20060;-61
2022/03/08 06:39:06;;;;;;;34.42;22.08;;;;;;;1.75;69.53;95019.38;5027514;28;20037;-61
2022/03/08 06:41:32;;;;;;;28.58;18.23;;;;;;;1.90;68.56;95013.03;5038891;28;20058;-60
2022/03/08 06:43:59;;;;;;;28.80;19.92;;;;;;;2.12;68.03;95023.41;5029903;28;20421;-64
2022/03/08 06:46:25;;;;;;;28.33;18.83;;;;;;;2.16;67.33;95034.31;5035716;28;20033;-60
2022/03/08 06:48:51;;;;;;;28.20;19.65;;;;;;;1.77;67.99;94989.69;5046749;28;20033;-62
2022/03/08 06:51:16;;;;;;;28.60;18.80;;;;;;;1.94;66.64;94991.72;5042248;28;20064;-59
2022/03/08 06:53:42;;;;;;;28.27;19.17;;;;;;;2.34;66.49;95041.41;5035790;28;20855;-60
2022/03/08 06:56:07;;;;;;;28.23;18.85;;;;;;;2.38;66.67;95031.97;5031528;28;20045;-59
2022/03/08 06:58:33;;;;;;;22.45;15.00;;;;;;;2.22;64.66;95006.16;5031153;28;20030;-62
2022/03/08 07:00:58;;;;;;;27.02;16.88;;;;;;;2.21;66.40;95014.66;5029497;28;20485;-59
2022/03/08 07:03:24;;;;;;;28.05;18.88;;;;;;;2.34;65.99;95021.03;5038902;28;20469;-62
2022/03/08 07:05:49;;;;;;;28.88;19.73;;;;;;;1.48;66.79;94909.19;5029189;28;20453;-61
2022/03/08 07:08:15;;;;;;;28.15;18.10;;;;;;;2.27;66.84;95039.09;5039815;28;20459;-59
2022/03/08 07:10:40;;;;;;;26.65;17.63;;;;;;;2.31;65.85;95033.88;5028500;28;20036;-59
2022/03/08 07:13:06;;;;;;;28.17;18.55;;;;;;;2.25;66.36;95021.34;5038022;28;20041;-62
2022/03/08 07:15:33;;;;;;;26.20;17.63;;;;;;;2.52;65.90;95045.09;5029612;28;20040;-63
2022/03/08 07:17:58;;;;;;;25.45;16.73;;;;;;;2.28;65.27;95000.88;5032449;28;20511;-60
2022/03/08 07:20:24;;;;;;;26.17;16.25;;;;;;;2.10;66.42;95035.34;5047532;28;20037;-61
2022/03/08 07:22:49;;;;;;;25.45;17.70;;;;;;;2.07;67.02;95024.44;5046224;28;20583;-64
2022/03/08 07:25:16;;;;;;;26.63;17.77;;;;;;;1.96;67.33;95035.75;5046986;28;20033;-61
2022/03/08 07:27:42;;;;;;;23.73;16.08;;;;;;;1.63;66.87;94989.25;5032425;28;20074;-61
2022/03/08 07:30:09;;;;;;;26.05;18.15;;;;;;;1.89;67.47;95039.34;5030963;28;20114;-64
2022/03/08 07:32:35;;;;;;;25.02;17.35;;;;;;;1.69;68.07;95021.28;5032090;28;20025;-59
2022/03/08 07:35:01;;;;;;;24.55;16.55;;;;;;;1.83;68.33;95042.06;5030877;28;20021;-62
2022/03/08 07:37:26;;;;;;;22.63;16.42;;;;;;;2.01;67.65;95026.25;5028740;28;20179;-63
2022/03/08 07:39:55;;;;;;;24.25;16.13;;;;;;;1.86;66.82;95014.00;5030734;28;20040;-67
2022/03/08 07:42:20;;;;;;;24.60;17.13;;;;;;;2.06;66.34;95035.47;5041055;28;20104;-58
2022/03/08 07:44:46;;;;;;;25.30;16.35;;;;;;;1.86;67.05;95023.34;5050559;28;20183;-62
2022/03/08 07:47:11;;;;;;;25.10;16.73;;;;;;;2.08;66.51;95034.53;5048066;28;20025;-66
2022/03/08 07:49:37;;;;;;;23.67;16.95;;;;;;;1.81;66.05;94959.91;5049259;28;20097;-65
2022/03/08 07:52:03;;;;;;;22.10;14.95;;;;;;;2.21;64.26;95035.00;5049987;28;20415;-65
2022/03/08 07:54:28;;;;;;;20.40;12.68;;;;;;;1.68;65.44;95009.47;5050537;28;20029;-67
2022/03/08 07:56:54;;;;;;;23.13;15.45;;;;;;;1.38;66.30;94994.19;5050254;28;20028;-63
2022/03/08 07:59:19;;;;;;;25.58;14.38;;;;;;;1.54;66.62;95037.78;5049938;28;20439;-60
2022/03/08 08:01:45;;;;;;;23.23;15.75;;;;;;;1.52;67.23;95040.38;5048264;28;20488;-59
2022/03/08 08:04:10;;;;;;;24.33;14.77;;;;;;;0.99;66.75;94972.34;5032974;28;20033;-63
2022/03/08 08:06:36;;;;;;;26.20;16.20;;;;;;;1.50;67.45;95038.75;5030146;28;20029;-69
2022/03/08 08:09:03;;;;;;;28.58;18.05;;;;;;;1.51;67.35;95038.72;5029680;28;20026;-66
2022/03/08 08:11:28;;;;;;;24.98;17.77;;;;;;;1.57;68.09;95043.63;5027137;28;20112;-64
2022/03/08 08:13:54;;;;;;;25.50;15.88;;;;;;;1.47;67.01;95021.88;5027307;28;20176;-67
2022/03/08 08:16:19;;;;;;;31.67;20.35;;;;;;;1.78;67.17;95037.09;5029292;28;20480;-65
2022/03/08 08:18:45;;;;;;;29.00;19.88;;;;;;;1.82;67.46;95038.69;5042980;28;20332;-68
2022/03/08 08:21:11;;;;;;;31.15;19.92;;;;;;;1.69;67.38;95027.22;5050011;28;20032;-59
2022/03/08 08:23:36;;;;;;;28.98;17.75;;;;;;;1.82;66.47;95045.47;5049671;28;20016;-63
2022/03/08 08:26:02;;;;;;;36.45;22.58;;;;;;;1.52;67.47;95025.13;5049402;28;20025;-68
2022/03/08 08:28:27;;;;;;;31.15;20.92;;;;;;;1.47;67.16;95027.78;5049421;28;20484;-65
2022/03/08 08:30:53;;;;;;;31.73;19.90;;;;;;;1.10;67.19;94977.16;5048512;28;20031;-64
2022/03/08 08:33:19;;;;;;;28.50;18.65;;;;;;;1.26;67.33;95018.19;5039070;28;20653;-65
2022/03/08 08:35:44;;;;;;;31.23;19.88;;;;;;;1.03;67.78;94993.41;5029978;28;20021;-65
2022/03/08 08:38:10;;;;;;;26.50;16.67;;;;;;;1.34;66.86;95049.31;5029356;28;20032;-63
2022/03/08 08:40:35;;;;;;;30.77;20.42;;;;;;;1.10;67.98;95031.31;5030037;28;20096;-60
2022/03/08 08:43:02;;;;;;;28.90;18.58;;;;;;;0.92;68.54;95014.03;5035796;28;20021;-59
2022/03/08 08:45:29;;;;;;;33.20;20.15;;;;;;;1.00;69.04;95052.75;5049611;28;20479;-64
2022/03/08 08:47:55;;;;;;;29.92;18.55;;;;;;;0.86;68.99;95021.78;5041005;28;20435;-63
2022/03/08 08:50:20;;;;;;;26.88;18.65;;;;;;;1.20;68.03;95062.41;5029256;28;20033;-61
2022/03/08 08:52:45;;;;;;;32.78;20.02;;;;;;;1.13;68.58;95053.25;5028406;28;20021;-60
2022/03/08 08:55:11;;;;;;;27.90;17.70;;;;;;;1.10;67.91;95060.97;5029950;28;20076;-63
2022/03/08 08:57:38;;;;;;;33.33;20.00;;;;;;;1.10;67.33;95059.25;5029242;28;20454;-62
2022/03/08 09:00:05;;;;;;;29.95;19.42;;;;;;;1.08;67.78;95061.00;5029533;28;20035;-61
2022/03/08 09:02:30;;;;;;;27.38;18.10;;;;;;;1.14;66.33;95062.53;5028560;28;20017;-61
2022/03/08 09:04:56;;;;;;;28.70;17.73;;;;;;;0.21;65.87;94918.50;5029248;28;20033;-59
2022/03/08 09:07:21;;;;;;;29.70;18.52;;;;;;;0.69;66.05;95066.19;5029323;28;20108;-60
2022/03/08 09:09:49;;;;;;;30.73;18.85;;;;;;;0.51;67.04;95064.09;5036752;28;20013;-59
2022/03/08 09:12:14;;;;;;;30.00;17.52;;;;;;;0.42;67.10;95064.28;5048841;28;20032;-66
2022/03/08 09:14:40;;;;;;;29.92;16.10;;;;;;;0.22;66.05;95062.19;5048022;28;20052;-69
2022/03/08 09:17:05;;;;;;;31.60;18.33;;;;;;;0.17;67.94;95062.28;5048473;28;20109;-69
2022/03/08 09:19:31;;;;;;;26.63;16.95;;;;;;;-0.07;67.26;95034.03;5028220;28;20057;-59
2022/03/08 09:21:56;;;;;;;29.17;15.38;;;;;;;0.22;66.90;95067.28;5042458;28;20037;-59
2022/03/08 09:24:22;;;;;;;29.58;14.98;;;;;;;0.02;67.61;95067.66;5047372;28;20047;-65
2022/03/08 09:26:47;;;;;;;28.25;18.75;;;;;;;0.04;67.31;95041.44;5048591;28;20035;-62
2022/03/08 09:29:12;;;;;;;35.30;19.00;;;;;;;0.29;67.63;95066.25;5048476;28;20508;-61
2022/03/08 09:31:38;;;;;;;35.40;19.58;;;;;;;0.31;67.96;95036.59;5048313;28;20065;-60
2022/03/08 09:34:04;;;;;;;28.45;14.90;;;;;;;0.61;66.40;95064.69;5048120;28;20451;-63
2022/03/08 09:36:29;;;;;;;33.17;17.27;;;;;;;0.83;66.03;95068.38;5048153;28;20108;-62
2022/03/08 09:38:55;;;;;;;26.10;15.65;;;;;;;0.81;65.76;95059.16;5048471;28;20093;-56
2022/03/08 09:41:21;;;;;;;35.10;20.45;;;;;;;0.88;64.12;95027.66;5048246;28;20029;-60
2022/03/08 09:43:47;;;;;;;31.80;20.45;;;;;;;1.49;62.83;95049.78;5048283;28;20024;-57
2022/03/08 09:46:12;;;;;;;31.02;18.88;;;;;;;1.86;61.00;95029.25;5048545;28;20111;-62
2022/03/08 09:48:38;;;;;;;31.63;18.25;;;;;;;2.06;59.91;95055.84;5047642;28;20065;-61
2022/03/08 09:51:04;;;;;;;31.02;19.88;;;;;;;2.40;60.80;95055.66;5047676;28;20461;-61
2022/03/08 09:53:31;;;;;;;35.75;22.90;;;;;;;3.29;58.54;95049.41;5047886;28;20127;-59
2022/03/08 09:56:01;;;;;;;34.72;22.63;;;;;;;3.88;55.78;95012.47;5048545;28;20130;-59
2022/03/08 09:58:26;;;;;;;31.23;19.58;;;;;;;3.53;54.79;95045.19;5048227;28;20056;-61
2022/03/08 10:00:55;;;;;;;31.58;17.92;;;;;;;3.54;54.85;95046.03;5048059;28;20593;-60
2022/03/08 10:03:35;;;;;;;31.63;19.17;;;;;;;2.91;56.15;95015.88;5037637;28;20027;-60
2022/03/08 10:06:01;;;;;;;33.35;19.98;;;;;;;2.09;57.69;94979.44;5028164;28;20071;-61
2022/03/08 10:08:27;;;;;;;28.23;15.02;;;;;;;2.08;58.94;95054.06;5028333;28;20049;-60
2022/03/08 10:10:58;;;;;;;30.75;18.08;;;;;;;2.04;60.17;95063.50;5028283;28;20441;-59
2022/03/08 10:13:27;;;;;;;29.40;17.05;;;;;;;2.01;59.18;95074.59;5027272;28;20061;-60
2022/03/08 10:16:22;;;;;;;35.95;20.80;;;;;;;1.95;60.18;95071.38;5028048;28;20111;-60
2022/03/08 10:19:04;;;;;;;36.17;22.45;;;;;;;2.24;60.39;95065.47;5028844;28;20497;-61
2022/03/08 10:21:35;;;;;;;35.15;20.48;;;;;;;2.22;60.74;95048.59;5028265;28;20033;-65
2022/03/08 10:24:18;;;;;;;27.45;16.55;;;;;;;2.15;59.97;95053.03;5028112;28;20404;-61
2022/03/08 10:27:10;;;;;;;31.27;18.40;;;;;;;2.08;60.85;95048.97;5027653;28;20400;-63
2022/03/08 10:29:37;;;;;;;36.08;22.00;;;;;;;2.23;60.83;95060.41;5028072;28;20030;-69
2022/03/08 10:32:09;;;;;;;37.58;24.27;;;;;;;2.24;60.90;95031.56;5028164;28;20033;-72
2022/03/08 10:34:38;;;;;;;;;;;;;;;2.65;58.71;95060.00;5028595;28;20029;-60
2022/03/08 10:37:07;;;;;;;32.97;20.60;;;;;;;2.90;57.87;95043.06;5027850;28;20342;-60
2022/03/08 10:39:33;;;;;;;36.70;24.33;;;;;;;3.07;59.19;95059.50;5027827;28;20471;-60
2022/03/08 10:42:00;;;;;;;36.40;22.42;;;;;;;3.20;65.16;95036.97;5027943;28;20560;-64
2022/03/08 10:44:32;;;;;;;35.58;20.58;;;;;;;3.24;62.98;95024.06;5027582;28;20033;-63
2022/03/08 10:47:00;;;;;;;32.30;20.88;;;;;;;3.06;57.24;95043.38;5027946;28;20029;-62
2022/03/08 10:49:25;;;;;;;27.27;16.52;;;;;;;2.84;56.92;95050.06;5027101;28;20022;-62
2022/03/08 10:51:59;;;;;;;32.90;19.77;;;;;;;2.85;58.47;95052.53;5044830;28;20120;-63
2022/03/08 10:54:25;;;;;;;34.70;20.65;;;;;;;2.99;57.66;95046.19;5047384;28;20068;-60
2022/03/08 10:56:50;;;;;;;33.60;20.95;;;;;;;2.46;57.61;95049.53;5047473;28;20522;-62
2022/03/08 10:59:18;;;;;;;31.42;18.40;;;;;;;2.13;59.63;95059.84;5047552;28;20462;-58
2022/03/08 11:01:43;;;;;;;33.00;21.08;;;;;;;2.47;58.98;95056.31;5045352;28;20048;-60
2022/03/08 11:04:18;;;;;;;36.47;23.77;;;;;;;2.77;58.46;95059.59;5046754;28;20048;-69
2022/03/08 11:06:45;;;;;;;35.53;20.10;;;;;;;2.65;57.27;95044.72;5048556;28;20029;-65
2022/03/08 11:09:10;;;;;;;35.05;22.77;;;;;;;2.85;56.87;95054.25;5047535;28;20104;-60
2022/03/08 11:11:37;;;;;;;34.33;23.75;;;;;;;2.79;57.66;95023.88;5045899;28;20113;-63
2022/03/08 11:14:03;;;;;;;36.72;23.23;;;;;;;2.80;56.01;95035.75;5046573;28;20056;-61
2022/03/08 11:16:31;;;;;;;33.25;20.92;;;;;;;2.99;56.10;95049.56;5047632;28;20031;-66
2022/03/08 11:18:56;;;;;;;34.35;20.92;;;;;;;2.97;56.15;95033.50;5046526;28;20040;-62